Time;durP1;ratioP1;P1;durP2;ratioP2;P2;SDS_P1;SDS_P2;PMS_P1;PMS_P2;Temp;Humidity;BMP_temperature;BMP_pressure;BME280_temperature;BME280_humidity;BME280_pressure;Samples;Min_cycle;Max_cycle;Signal;HPM_P1;HPM_P2
2021/06/22 00:00:36;;;;;;;11.20;3.83;;;;;;;14.35;69.24;101399.09;5054665;28;20048;-48
2021/06/22 00:03:04;;;;;;;12.75;3.30;;;;;;;14.23;69.39;101400.22;5054265;28;20040;-51
2021/06/22 00:05:32;;;;;;;9.85;3.05;;;;;;;14.22;69.69;101411.47;5054140;28;20045;-47
2021/06/22 00:08:00;;;;;;;10.82;3.90;;;;;;;14.15;69.55;101413.69;5054445;28;20048;-47
2021/06/22 00:10:29;;;;;;;8.43;3.10;;;;;;;14.14;69.94;101412.88;5053274;28;20045;-45
2021/06/22 00:12:58;;;;;;;9.35;3.15;;;;;;;14.22;70.12;101411.47;5054482;28;20377;-48
2021/06/22 00:15:28;;;;;;;10.18;3.90;;;;;;;14.30;69.51;101410.06;5053502;28;20041;-45
2021/06/22 00:17:57;;;;;;;9.93;3.53;;;;;;;14.18;69.81;101404.88;5053818;28;20419;-46
2021/06/22 00:20:25;;;;;;;14.50;4.13;;;;;;;14.13;70.20;101407.66;5052773;28;20065;-45
2021/06/22 00:22:54;;;;;;;8.10;3.38;;;;;;;14.05;70.60;101412.59;5054640;28;20045;-45
2021/06/22 00:25:22;;;;;;;9.65;3.80;;;;;;;14.06;70.52;101422.44;5053320;28;20033;-45
2021/06/22 00:27:51;;;;;;;9.55;3.80;;;;;;;14.07;70.44;101429.59;5054412;28;20447;-45
2021/06/22 00:30:20;;;;;;;15.20;3.90;;;;;;;14.10;70.85;101421.91;5054262;28;20049;-46
2021/06/22 00:32:48;;;;;;;11.93;3.80;;;;;;;14.06;70.74;101422.44;5053817;28;20071;-48
2021/06/22 00:35:16;;;;;;;15.57;4.25;;;;;;;14.14;70.45;101423.81;5053781;28;20585;-51
2021/06/22 00:37:44;;;;;;;11.00;4.05;;;;;;;14.15;70.46;101428.19;5054152;28;20487;-48
2021/06/22 00:40:13;;;;;;;9.73;4.13;;;;;;;14.14;70.59;101436.69;5054049;28;20565;-48
2021/06/22 00:42:43;;;;;;;9.88;4.03;;;;;;;14.17;70.34;101438.91;5053789;28;20073;-48
2021/06/22 00:45:13;;;;;;;10.88;3.80;;;;;;;14.15;70.70;101435.59;5053752;28;20044;-49
2021/06/22 00:47:41;;;;;;;13.40;4.10;;;;;;;14.07;71.36;101428.78;5048554;28;20492;-46
2021/06/22 00:50:10;;;;;;;10.88;3.67;;;;;;;14.10;71.31;101421.91;5053519;28;20033;-46
2021/06/22 00:52:44;;;;;;;11.35;3.88;;;;;;;14.12;71.06;101422.44;5052769;28;20041;-46
2021/06/22 00:55:13;;;;;;;9.88;3.55;;;;;;;14.07;71.18;101426.84;5052292;28;20385;-46
2021/06/22 00:57:43;;;;;;;11.90;4.05;;;;;;;14.09;71.68;101429.28;5049040;28;20412;-47
2021/06/22 01:00:11;;;;;;;10.43;3.58;;;;;;;14.10;71.47;101432.88;5046851;28;20049;-46
2021/06/22 01:02:44;;;;;;;10.75;3.85;;;;;;;13.99;71.66;101430.13;5043851;28;20519;-46
2021/06/22 01:05:12;;;;;;;10.95;3.75;;;;;;;13.99;72.21;101430.13;5053644;28;20033;-45
2021/06/22 01:07:55;;;;;;;11.27;4.10;;;;;;;14.06;71.87;101440.81;5053433;28;20442;-48
2021/06/22 01:10:25;;;;;;;11.73;4.35;;;;;;;14.10;71.76;101438.34;5051814;28;20049;-48
2021/06/22 01:12:53;;;;;;;16.10;4.43;;;;;;;14.04;71.49;101435.59;5053225;28;20049;-48
2021/06/22 01:15:25;;;;;;;14.70;4.10;;;;;;;13.99;71.79;101443.81;5034743;28;20117;-45
2021/06/22 01:17:57;;;;;;;13.38;4.72;;;;;;;13.99;72.51;101441.09;5051620;28;20068;-45
2021/06/22 01:20:30;;;;;;;12.13;4.05;;;;;;;14.02;72.10;101432.34;5052168;28;20075;-47
2021/06/22 01:23:02;;;;;;;13.48;4.18;;;;;;;14.07;72.15;101437.00;5053114;28;20061;-45
2021/06/22 01:25:31;;;;;;;8.65;3.95;;;;;;;14.10;72.05;101435.63;5068483;28;20049;-48
2021/06/22 01:27:59;;;;;;;11.27;4.32;;;;;;;14.03;72.14;101433.97;5052882;28;20049;-47
2021/06/22 01:30:28;;;;;;;11.63;4.40;;;;;;;13.98;72.38;101438.66;5051336;28;20052;-49
2021/06/22 01:33:05;;;;;;;12.75;4.05;;;;;;;13.88;72.67;101435.88;5051387;28;20037;-47
2021/06/22 01:35:33;;;;;;;12.70;4.47;;;;;;;13.82;73.12;101438.63;5051156;28;20041;-48
2021/06/22 01:38:06;;;;;;;11.43;4.45;;;;;;;13.81;73.07;101436.19;5051970;28;20048;-48
2021/06/22 01:40:43;;;;;;;16.38;4.70;;;;;;;13.79;73.48;101430.97;5051922;28;20063;-50
2021/06/22 01:43:12;;;;;;;15.15;4.18;;;;;;;13.74;73.39;101432.91;5052974;28;20041;-49
2021/06/22 01:45:46;;;;;;;12.73;4.22;;;;;;;13.71;73.66;101441.66;5051213;28;20053;-50
2021/06/22 01:48:14;;;;;;;14.27;4.35;;;;;;;13.55;74.16;101441.66;5051004;28;20050;-49
2021/06/22 01:50:45;;;;;;;14.98;5.30;;;;;;;13.34;74.68;101439.97;5040980;28;20060;-47
2021/06/22 01:53:20;;;;;;;14.98;4.47;;;;;;;13.37;74.91;101425.75;5037499;28;20424;-46
2021/06/22 01:55:51;;;;;;;15.05;4.70;;;;;;;13.43;74.78;101430.97;5051367;28;20052;-48
2021/06/22 01:58:21;;;;;;;13.57;4.45;;;;;;;13.50;74.47;101440.84;5052375;28;20056;-51
2021/06/22 02:00:59;;;;;;;10.75;4.53;;;;;;;13.45;74.37;101449.88;5052330;28;20131;-46
2021/06/22 02:03:42;;;;;;;11.90;4.75;;;;;;;13.46;74.43;101440.53;5039820;28;20051;-49
2021/06/22 02:06:10;;;;;;;14.70;4.97;;;;;;;13.37;74.15;101436.69;5050871;28;20053;-49
2021/06/22 02:08:43;;;;;;;13.73;4.55;;;;;;;13.19;75.84;101430.63;5048239;28;20064;-49
2021/06/22 02:11:10;;;;;;;11.52;4.25;;;;;;;13.14;75.90;101438.00;5050961;28;20041;-49
2021/06/22 02:13:49;;;;;;;15.63;4.70;;;;;;;13.15;75.47;101431.44;5047527;28;20029;-48
2021/06/22 02:16:24;;;;;;;13.20;4.47;;;;;;;13.15;75.71;101429.50;5041644;28;20037;-48
2021/06/22 02:18:58;;;;;;;12.05;4.35;;;;;;;13.19;75.36;101436.09;5037637;28;20128;-47
2021/06/22 02:21:26;;;;;;;15.50;4.50;;;;;;;13.12;75.66;101440.19;5050919;28;20052;-45
2021/06/22 02:23:55;;;;;;;13.73;5.40;;;;;;;13.11;75.83;101439.38;5050742;28;20037;-46
2021/06/22 02:26:25;;;;;;;11.27;4.60;;;;;;;13.09;76.05;101452.50;5051144;28;20052;-48
2021/06/22 02:28:54;;;;;;;10.90;4.28;;;;;;;13.07;76.31;101446.47;5052046;28;20094;-48
2021/06/22 02:31:22;;;;;;;12.43;4.50;;;;;;;13.04;76.29;101449.75;5051598;28;20057;-47
2021/06/22 02:33:53;;;;;;;14.30;4.13;;;;;;;13.12;76.22;101440.19;5037966;28;20057;-49
2021/06/22 02:36:26;;;;;;;11.52;4.47;;;;;;;13.22;75.70;101440.19;5051929;28;20099;-50
2021/06/22 02:38:55;;;;;;;12.32;4.70;;;;;;;13.18;75.65;101431.72;5051509;28;20407;-50
2021/06/22 02:41:24;;;;;;;13.15;4.63;;;;;;;13.12;76.15;101421.84;5051940;28;20512;-51
2021/06/22 02:44:01;;;;;;;14.45;4.55;;;;;;;13.14;76.15;101427.88;5051435;28;20073;-49
2021/06/22 02:46:33;;;;;;;12.05;4.35;;;;;;;13.13;75.52;101428.97;5047497;28;20049;-48
2021/06/22 02:49:02;;;;;;;12.82;4.60;;;;;;;12.99;75.95;101416.91;5044324;28;20056;-49
2021/06/22 02:51:30;;;;;;;13.38;4.70;;;;;;;12.97;76.39;101427.28;5050414;28;20056;-50
2021/06/22 02:53:57;;;;;;;11.68;4.25;;;;;;;13.00;76.01;101421.28;5051808;28;20072;-51
2021/06/22 02:56:26;;;;;;;11.25;4.50;;;;;;;13.09;76.28;101421.59;5050784;28;20060;-48
2021/06/22 02:58:57;;;;;;;12.60;4.43;;;;;;;13.10;75.55;101426.75;5051575;28;20048;-48
2021/06/22 03:01:25;;;;;;;13.82;4.85;;;;;;;13.12;75.66;101424.59;5050443;28;20075;-51
2021/06/22 03:03:54;;;;;;;10.95;4.60;;;;;;;13.13;75.47;101419.94;5050613;28;20049;-48
2021/06/22 03:06:24;;;;;;;11.60;4.60;;;;;;;13.13;75.51;101420.78;5051444;28;20053;-52
2021/06/22 03:08:59;;;;;;;11.15;4.28;;;;;;;13.17;75.75;101424.59;5050594;28;20049;-48
2021/06/22 03:11:37;;;;;;;13.75;4.60;;;;;;;13.20;75.04;101431.44;5050619;28;20071;-51
2021/06/22 03:14:07;;;;;;;12.13;4.38;;;;;;;13.16;75.60;101431.16;5046718;28;20037;-45
2021/06/22 03:16:55;;;;;;;14.65;4.82;;;;;;;13.09;75.47;101427.06;5049429;28;20041;-46
2021/06/22 03:19:24;;;;;;;10.73;3.97;;;;;;;13.11;75.75;101430.34;5050283;28;20526;-47
2021/06/22 03:21:57;;;;;;;10.38;4.30;;;;;;;13.09;75.68;101443.47;5050522;28;20045;-48
2021/06/22 03:24:26;;;;;;;10.70;4.25;;;;;;;13.03;75.98;101444.53;5047339;28;20116;-45
2021/06/22 03:26:54;;;;;;;11.80;4.50;;;;;;;12.97;76.38;101443.72;5047708;28;20080;-48
2021/06/22 03:29:26;;;;;;;12.05;4.68;;;;;;;12.92;76.31;101443.69;5050533;28;20045;-49
2021/06/22 03:32:00;;;;;;;16.80;5.05;;;;;;;12.89;76.47;101442.31;5051482;28;20052;-51
2021/06/22 03:34:27;;;;;;;13.95;4.78;;;;;;;13.01;76.72;101442.06;5051502;28;20071;-48
2021/06/22 03:36:55;;;;;;;9.52;4.35;;;;;;;13.01;75.78;101450.25;5051494;28;20044;-49
2021/06/22 03:39:23;;;;;;;11.25;4.30;;;;;;;13.04;76.63;101454.41;5051170;28;20041;-47
2021/06/22 03:41:52;;;;;;;12.20;4.45;;;;;;;13.20;75.87;101448.69;5046751;28;20049;-47
2021/06/22 03:44:20;;;;;;;12.98;4.85;;;;;;;13.19;75.64;101452.50;5015723;28;20049;-48
2021/06/22 03:47:02;;;;;;;9.32;4.45;;;;;;;12.96;76.40;101448.38;5051724;28;20515;-47
2021/06/22 03:49:31;;;;;;;11.02;4.47;;;;;;;12.88;76.59;101451.59;5033583;28;20045;-49
2021/06/22 03:51:59;;;;;;;9.00;4.30;;;;;;;12.89;76.92;101447.78;5054386;28;20041;-47
2021/06/22 03:54:30;;;;;;;11.93;4.28;;;;;;;12.98;76.59;101450.81;5052020;28;20073;-46
2021/06/22 03:56:58;;;;;;;10.38;4.50;;;;;;;13.11;75.59;101463.19;5054547;28;20099;-49
2021/06/22 03:59:36;;;;;;;13.15;4.15;;;;;;;13.10;75.53;101464.25;5053386;28;20431;-51
2021/06/22 04:02:04;;;;;;;11.90;4.70;;;;;;;13.11;75.59;101465.91;5053594;28;20041;-50
2021/06/22 04:04:32;;;;;;;10.45;4.60;;;;;;;13.05;75.76;101467.78;5054156;28;20561;-49
2021/06/22 04:07:04;;;;;;;12.35;4.72;;;;;;;13.09;75.61;101473.56;5053301;28;20056;-49
2021/06/22 04:09:35;;;;;;;8.23;3.60;;;;;;;13.15;76.05;101467.81;5054808;28;20049;-51
2021/06/22 04:12:03;;;;;;;13.45;4.90;;;;;;;13.22;75.65;101462.09;5053733;28;20049;-49
2021/06/22 04:14:33;;;;;;;11.48;4.68;;;;;;;13.25;74.99;101461.53;5053331;28;20056;-48
2021/06/22 04:17:02;;;;;;;11.55;4.72;;;;;;;13.12;75.60;101457.41;5052943;28;20071;-49
2021/06/22 04:19:31;;;;;;;9.60;4.45;;;;;;;13.05;76.00;101472.44;5033301;28;20111;-49
2021/06/22 04:22:02;;;;;;;11.85;4.50;;;;;;;13.06;76.01;101468.59;5051186;28;20072;-48
2021/06/22 04:24:52;;;;;;;10.98;4.60;;;;;;;12.98;76.26;101465.31;5053922;28;20103;-50
2021/06/22 04:27:21;;;;;;;10.80;4.32;;;;;;;13.08;75.26;101471.91;5053145;28;20488;-45
2021/06/22 04:29:49;;;;;;;9.77;4.72;;;;;;;13.08;75.87;101475.44;5054013;28;20098;-48
2021/06/22 04:32:17;;;;;;;12.95;4.22;;;;;;;13.09;75.31;101468.09;5054189;28;20041;-48
2021/06/22 04:34:44;;;;;;;10.70;4.22;;;;;;;13.16;75.22;101463.19;5053825;28;20055;-51
2021/06/22 04:37:12;;;;;;;10.95;4.45;;;;;;;13.13;75.48;101467.28;5054036;28;20060;-50
2021/06/22 04:39:40;;;;;;;14.25;4.40;;;;;;;13.10;76.12;101475.19;5053549;28;20044;-49
2021/06/22 04:42:07;;;;;;;8.32;3.67;;;;;;;12.97;76.08;101476.53;5054049;28;20146;-48
2021/06/22 04:44:35;;;;;;;9.52;4.30;;;;;;;12.97;75.87;101490.22;5053641;28;20045;-48
2021/06/22 04:47:03;;;;;;;10.20;4.07;;;;;;;13.01;75.71;101488.56;5052857;28;20041;-50
2021/06/22 04:49:31;;;;;;;14.07;4.88;;;;;;;13.09;75.77;101485.31;5053682;28;20507;-48
2021/06/22 04:51:59;;;;;;;8.88;4.50;;;;;;;12.98;75.54;101487.19;5053730;28;20068;-47
2021/06/22 04:54:26;;;;;;;8.82;3.75;;;;;;;13.08;75.80;101497.34;5052973;28;20045;-50
2021/06/22 04:56:54;;;;;;;10.35;4.63;;;;;;;13.14;75.55;101493.53;5053523;28;20049;-49
2021/06/22 04:59:22;;;;;;;13.00;4.38;;;;;;;13.15;75.00;101499.84;5053742;28;20041;-47
2021/06/22 05:01:50;;;;;;;16.27;5.00;;;;;;;13.17;75.32;101503.94;5053329;28;20135;-49
2021/06/22 05:04:19;;;;;;;12.45;4.35;;;;;;;13.20;75.14;101506.16;5052141;28;20049;-51
2021/06/22 05:06:46;;;;;;;8.60;3.83;;;;;;;13.31;75.34;101508.97;5053427;28;20036;-51
2021/06/22 05:09:14;;;;;;;10.02;3.80;;;;;;;13.40;74.64;101507.34;5053520;28;20103;-48
2021/06/22 05:11:42;;;;;;;9.52;4.13;;;;;;;13.37;74.66;101514.19;5050617;28;20041;-49
2021/06/22 05:14:09;;;;;;;10.18;3.75;;;;;;;13.38;74.86;101515.81;5053002;28;20488;-51
2021/06/22 05:16:37;;;;;;;11.52;3.80;;;;;;;13.35;74.15;101521.03;5052907;28;20076;-48
2021/06/22 05:19:05;;;;;;;17.38;4.80;;;;;;;13.37;74.47;101513.34;5052719;28;20072;-48
2021/06/22 05:21:32;;;;;;;11.77;4.70;;;;;;;13.43;74.57;101517.75;5053144;28;20094;-47
2021/06/22 05:24:00;;;;;;;12.20;4.50;;;;;;;13.44;74.11;101519.38;5052847;28;20052;-50
2021/06/22 05:26:28;;;;;;;11.05;3.85;;;;;;;13.44;74.29;101522.13;5053007;28;20507;-48
2021/06/22 05:28:55;;;;;;;10.20;4.10;;;;;;;13.52;73.54;101521.59;5053025;28;20044;-50
2021/06/22 05:31:23;;;;;;;12.95;4.63;;;;;;;13.51;72.83;101519.94;5051352;28;20048;-49
2021/06/22 05:33:51;;;;;;;15.80;5.32;;;;;;;13.53;72.55;101531.44;5052606;28;20503;-49
2021/06/22 05:36:19;;;;;;;15.32;4.20;;;;;;;13.50;72.34;101523.78;5052741;28;20033;-47
2021/06/22 05:38:47;;;;;;;10.57;3.72;;;;;;;13.45;73.11;101523.78;5052204;28;20041;-52
2021/06/22 05:41:15;;;;;;;11.75;3.90;;;;;;;13.49;72.86;101516.66;5052739;28;20522;-50
2021/06/22 05:43:42;;;;;;;14.88;5.50;;;;;;;13.54;71.88;101518.56;5052496;28;20534;-48
2021/06/22 05:46:10;;;;;;;13.63;5.10;;;;;;;13.58;71.98;101519.69;5052673;28;20041;-47
2021/06/22 05:48:38;;;;;;;15.35;8.90;;;;;;;13.49;71.71;101527.59;5052806;28;20045;-47
2021/06/22 05:51:05;;;;;;;15.95;5.63;;;;;;;13.43;71.16;101523.22;5052597;28;20557;-46
2021/06/22 05:53:33;;;;;;;14.73;5.78;;;;;;;13.41;71.78;101522.66;5052427;28;20558;-48
2021/06/22 05:56:03;;;;;;;12.85;5.10;;;;;;;13.46;71.83;101530.06;5052259;28;20057;-47
2021/06/22 05:58:31;;;;;;;15.93;7.18;;;;;;;13.49;71.54;101524.84;5050191;28;20061;-52
2021/06/22 06:00:59;;;;;;;15.90;6.20;;;;;;;13.47;71.24;101527.06;5052562;28;20462;-53
2021/06/22 06:03:27;;;;;;;14.73;6.13;;;;;;;13.53;71.39;101525.97;5052563;28;20053;-51
2021/06/22 06:05:54;;;;;;;18.15;6.80;;;;;;;13.60;70.69;101531.19;5052441;28;20055;-51
2021/06/22 06:08:22;;;;;;;18.92;9.82;;;;;;;13.62;70.62;101538.03;5052047;28;20529;-52
2021/06/22 06:10:49;;;;;;;14.27;6.35;;;;;;;13.60;69.76;101545.69;4350081;28;10000598;-50
2021/06/22 06:13:17;;;;;;;16.95;7.10;;;;;;;13.56;69.40;101550.06;5046596;28;20033;-51
2021/06/22 06:15:45;;;;;;;13.35;6.65;;;;;;;13.58;69.50;101547.88;5049844;28;20037;-51
2021/06/22 06:18:12;;;;;;;16.75;7.78;;;;;;;13.55;68.98;101542.97;5049541;28;20135;-52
2021/06/22 06:20:40;;;;;;;14.70;7.75;;;;;;;13.56;69.39;101541.03;5049357;28;20095;-50
2021/06/22 06:23:08;;;;;;;14.95;6.95;;;;;;;13.59;68.90;101535.03;5047960;28;20049;-50
2021/06/22 06:25:36;;;;;;;17.80;7.22;;;;;;;13.54;69.04;101543.22;5049860;28;20064;-49
2021/06/22 06:28:12;;;;;;;13.57;7.18;;;;;;;13.57;68.71;101539.97;5038680;28;20049;-50
2021/06/22 06:30:40;;;;;;;18.30;7.40;;;;;;;13.64;69.07;101538.59;5048638;28;20075;-49
2021/06/22 06:33:08;;;;;;;18.88;6.95;;;;;;;13.68;68.43;101546.28;5049656;28;20036;-53
2021/06/22 06:35:35;;;;;;;17.33;7.53;;;;;;;13.70;68.05;101544.91;5048635;28;20415;-49
2021/06/22 06:38:03;;;;;;;17.02;6.55;;;;;;;13.74;68.20;101545.19;5049911;28;20052;-48
2021/06/22 06:40:31;;;;;;;17.30;7.05;;;;;;;13.84;68.07;101539.72;5049714;28;20410;-48
2021/06/22 06:42:59;;;;;;;18.33;7.30;;;;;;;13.93;68.05;101531.81;5051641;28;20045;-49
2021/06/22 06:45:27;;;;;;;16.35;6.80;;;;;;;13.92;67.12;101547.38;5052039;28;20055;-48
2021/06/22 06:47:56;;;;;;;17.38;6.60;;;;;;;13.89;66.90;101550.69;5050338;28;20048;-49
2021/06/22 06:50:27;;;;;;;18.98;6.47;;;;;;;13.94;67.28;101556.16;5051200;28;20052;-48
2021/06/22 06:52:55;;;;;;;13.93;6.68;;;;;;;13.96;67.30;101553.97;5051601;28;20053;-51
2021/06/22 06:55:25;;;;;;;15.10;6.28;;;;;;;14.01;67.08;101553.97;5051616;28;20484;-51
2021/06/22 06:57:55;;;;;;;12.48;6.57;;;;;;;14.09;67.25;101557.28;5051745;28;20526;-49
2021/06/22 07:00:24;;;;;;;14.73;6.65;;;;;;;14.05;66.91;101551.53;5051917;28;20057;-50
2021/06/22 07:02:51;;;;;;;23.98;8.07;;;;;;;14.11;66.94;101558.63;5050227;28;20045;-49
2021/06/22 07:05:19;;;;;;;19.30;7.35;;;;;;;14.17;67.02;101556.75;5050977;28;20430;-51
2021/06/22 07:07:48;;;;;;;15.32;6.65;;;;;;;14.18;65.91;101566.59;5051692;28;20542;-50
2021/06/22 07:10:16;;;;;;;19.67;7.32;;;;;;;14.20;66.90;101564.41;5050090;28;20495;-50
2021/06/22 07:12:44;;;;;;;20.63;7.38;;;;;;;14.23;66.66;101564.66;5051201;28;20057;-48
2021/06/22 07:15:13;;;;;;;15.68;6.68;;;;;;;14.24;66.57;101562.78;5049888;28;20055;-48
2021/06/22 07:17:41;;;;;;;27.25;8.68;;;;;;;14.21;66.71;101560.56;5051466;28;20061;-48
2021/06/22 07:20:09;;;;;;;18.63;6.53;;;;;;;14.25;66.32;101561.66;5050913;28;20038;-49
2021/06/22 07:22:38;;;;;;;12.32;5.30;;;;;;;14.26;66.17;101558.66;5051107;28;20045;-49
2021/06/22 07:25:07;;;;;;;21.13;7.80;;;;;;;14.26;65.96;101547.69;5053069;28;20522;-51
2021/06/22 07:27:34;;;;;;;17.58;6.90;;;;;;;14.24;64.76;101555.38;5055038;28;20098;-52
2021/06/22 07:30:04;;;;;;;12.25;5.97;;;;;;;14.23;64.75;101563.84;5054972;28;20075;-49
2021/06/22 07:32:32;;;;;;;14.52;7.35;;;;;;;14.20;62.93;101550.69;5054760;28;20084;-49
2021/06/22 07:35:00;;;;;;;15.32;6.80;;;;;;;14.13;63.66;101553.72;5054395;28;20426;-49
2021/06/22 07:37:27;;;;;;;16.05;7.20;;;;;;;14.14;63.03;101554.53;5053736;28;20040;-49
2021/06/22 07:39:55;;;;;;;13.65;7.78;;;;;;;14.15;63.32;101564.41;5054818;28;20053;-51
2021/06/22 07:42:22;;;;;;;14.15;7.20;;;;;;;14.18;62.81;101566.59;5054688;28;20045;-47
2021/06/22 07:44:50;;;;;;;15.27;7.32;;;;;;;14.22;62.47;101573.19;5054393;28;20048;-49
2021/06/22 07:47:18;;;;;;;15.20;8.30;;;;;;;14.16;61.64;101575.09;5054402;28;20102;-52
2021/06/22 07:49:46;;;;;;;12.80;6.88;;;;;;;14.19;62.52;101573.72;5054142;28;20048;-49
2021/06/22 07:52:15;;;;;;;14.80;6.90;;;;;;;14.21;62.68;101580.56;5054559;28;20565;-50
2021/06/22 07:54:42;;;;;;;11.70;5.53;;;;;;;14.27;62.59;101587.69;5054480;28;20045;-48
2021/06/22 07:57:10;;;;;;;14.43;6.60;;;;;;;14.29;62.34;101573.72;5054511;28;20090;-50
2021/06/22 07:59:37;;;;;;;13.63;6.65;;;;;;;14.34;62.98;101576.47;5054563;28;20041;-48
2021/06/22 08:02:05;;;;;;;15.55;7.63;;;;;;;14.38;63.49;101583.06;5053998;28;20049;-49
2021/06/22 08:04:33;;;;;;;14.88;7.07;;;;;;;14.38;63.42;101583.06;5053804;28;20052;-51
2021/06/22 08:07:01;;;;;;;14.07;7.15;;;;;;;14.41;62.53;101587.97;5054436;28;20033;-48
2021/06/22 08:09:29;;;;;;;14.32;6.85;;;;;;;14.43;62.47;101591.28;5054096;28;20123;-48
2021/06/22 08:11:56;;;;;;;17.73;7.95;;;;;;;14.45;62.44;101594.53;5054106;28;20063;-51
2021/06/22 08:14:24;;;;;;;19.30;8.27;;;;;;;14.51;62.14;101591.81;5053493;28;20045;-48
2021/06/22 08:16:52;;;;;;;14.95;8.20;;;;;;;14.54;62.08;101599.50;5053720;28;20451;-50
2021/06/22 08:19:19;;;;;;;12.45;6.43;;;;;;;14.59;61.48;101594.03;5053540;28;20053;-48
2021/06/22 08:21:47;;;;;;;12.25;6.70;;;;;;;14.66;60.57;101594.56;5053984;28;20041;-51
2021/06/22 08:24:15;;;;;;;13.27;7.32;;;;;;;14.74;61.15;101594.00;5054095;28;20033;-49
2021/06/22 08:26:42;;;;;;;14.07;7.28;;;;;;;14.77;60.88;101595.34;5054083;28;20495;-48
2021/06/22 08:29:10;;;;;;;18.70;9.13;;;;;;;14.79;60.92;101604.97;5054028;28;20052;-51
2021/06/22 08:31:38;;;;;;;17.00;10.95;;;;;;;14.81;61.73;101602.75;5053343;28;20120;-48
2021/06/22 08:34:05;;;;;;;15.65;8.88;;;;;;;14.84;60.20;101602.22;5052346;28;20045;-49
2021/06/22 08:36:33;;;;;;;15.93;9.02;;;;;;;14.84;60.51;101595.88;5053103;28;20045;-50
2021/06/22 08:39:01;;;;;;;16.48;8.93;;;;;;;14.88;60.46;101596.97;5054073;28;20044;-48
2021/06/22 08:41:30;;;;;;;22.52;14.07;;;;;;;14.91;60.52;101591.78;5053876;28;20052;-50
2021/06/22 08:43:58;;;;;;;16.77;9.95;;;;;;;14.98;61.10;101601.63;5052389;28;20037;-51
2021/06/22 08:46:25;;;;;;;17.63;9.07;;;;;;;15.00;61.45;101611.22;5051688;28;20119;-50
2021/06/22 08:48:55;;;;;;;18.55;10.05;;;;;;;14.91;60.85;101610.13;5054227;28;20052;-46
2021/06/22 08:51:37;;;;;;;18.45;8.93;;;;;;;14.90;60.47;101605.75;5053944;28;20103;-48
2021/06/22 08:54:05;;;;;;;15.82;9.02;;;;;;;14.89;60.30;101604.94;5054502;28;20419;-51
2021/06/22 08:56:33;;;;;;;15.73;9.02;;;;;;;14.84;60.29;101599.47;5053504;28;20052;-50
2021/06/22 08:59:02;;;;;;;15.93;8.55;;;;;;;14.87;60.99;101601.66;5053833;28;20045;-49
2021/06/22 09:01:29;;;;;;;14.45;7.43;;;;;;;14.96;61.15;101596.44;5052652;28;20045;-52
2021/06/22 09:03:57;;;;;;;18.90;8.45;;;;;;;15.01;61.33;101590.94;5053414;28;20522;-48
2021/06/22 09:06:26;;;;;;;13.43;8.27;;;;;;;15.04;61.68;101592.28;5053073;28;20041;-47
2021/06/22 09:08:55;;;;;;;15.68;8.50;;;;;;;15.08;61.92;101590.59;5053660;28;20040;-49
2021/06/22 09:11:23;;;;;;;21.40;9.93;;;;;;;15.11;60.55;101606.53;5053013;28;20045;-50
2021/06/22 09:13:59;;;;;;;19.50;10.45;;;;;;;15.08;61.21;101596.09;5053077;28;20530;-48
2021/06/22 09:16:27;;;;;;;20.25;10.57;;;;;;;15.22;61.21;101601.81;5052506;28;20045;-48
2021/06/22 09:19:04;;;;;;;17.67;9.52;;;;;;;15.30;61.18;101602.06;5052981;28;20049;-50
2021/06/22 09:21:42;;;;;;;17.88;11.20;;;;;;;15.33;60.21;101597.94;5052630;28;20045;-48
2021/06/22 09:24:24;;;;;;;19.75;9.60;;;;;;;15.30;59.87;101601.25;5052765;28;20541;-49
2021/06/22 09:26:55;;;;;;;15.52;10.57;;;;;;;15.24;59.56;101597.69;5051949;28;20067;-47
2021/06/22 09:29:23;;;;;;;16.48;11.10;;;;;;;15.19;60.10;101599.66;5052610;28;20094;-48
2021/06/22 09:32:00;;;;;;;17.25;9.80;;;;;;;15.19;60.29;101592.22;5052165;28;20045;-48
2021/06/22 09:34:29;;;;;;;21.00;11.30;;;;;;;15.22;59.72;101591.66;5052657;28;20403;-51
2021/06/22 09:37:05;;;;;;;19.02;10.98;;;;;;;15.27;59.84;101583.44;5053044;28;20041;-49
2021/06/22 09:39:32;;;;;;;17.17;11.23;;;;;;;15.36;60.57;101582.84;5052690;28;20040;-50
2021/06/22 09:42:00;;;;;;;18.85;9.73;;;;;;;15.42;59.64;101578.97;5051007;28;20048;-50
2021/06/22 09:44:30;;;;;;;20.25;11.30;;;;;;;15.51;58.49;101583.59;5052042;28;20124;-48
2021/06/22 09:46:59;;;;;;;19.20;11.30;;;;;;;15.52;58.16;101573.41;5052546;28;20049;-50
2021/06/22 09:49:29;;;;;;;21.73;11.77;;;;;;;15.55;58.51;101570.09;5052189;28;20110;-50
2021/06/22 09:52:15;;;;;;;20.27;11.83;;;;;;;15.62;58.44;101578.84;5052208;28;20116;-45
2021/06/22 09:54:45;;;;;;;17.23;11.32;;;;;;;15.64;58.12;101568.41;5052230;28;20454;-47
2021/06/22 09:57:15;;;;;;;17.15;10.80;;;;;;;15.63;57.44;101574.97;5052584;28;20033;-49
2021/06/22 09:59:49;;;;;;;16.40;10.15;;;;;;;15.59;57.00;101573.94;5051940;28;20064;-48
2021/06/22 10:02:18;;;;;;;13.48;7.60;;;;;;;15.63;57.99;101585.16;5052450;28;20052;-49
2021/06/22 10:04:53;;;;;;;14.77;9.73;;;;;;;15.57;57.25;101578.88;5051007;28;20068;-51
2021/06/22 10:07:25;;;;;;;16.67;8.95;;;;;;;15.56;57.02;101579.97;5052519;28;20040;-50
2021/06/22 10:09:58;;;;;;;19.48;10.60;;;;;;;15.57;57.05;101570.63;5051936;28;20047;-49
2021/06/22 10:12:28;;;;;;;14.95;9.43;;;;;;;15.54;55.89;101571.22;5051960;28;20057;-49
2021/06/22 10:14:59;;;;;;;14.55;9.50;;;;;;;15.54;56.63;101565.72;5051655;28;20036;-47
2021/06/22 10:17:29;;;;;;;19.92;10.50;;;;;;;15.57;56.63;101570.63;5067519;28;20060;-50
2021/06/22 10:19:59;;;;;;;19.38;10.55;;;;;;;15.61;57.05;101566.22;5049845;28;20049;-47
2021/06/22 10:22:31;;;;;;;15.05;8.85;;;;;;;15.68;55.61;101569.47;5051678;28;20079;-55
2021/06/22 10:25:00;;;;;;;16.52;9.93;;;;;;;15.70;56.27;101566.47;5051740;28;20411;-52
2021/06/22 10:27:29;;;;;;;15.48;9.52;;;;;;;15.72;56.31;101569.75;5051766;28;20435;-49
2021/06/22 10:30:02;;;;;;;17.92;11.18;;;;;;;15.69;55.23;101576.59;5052177;28;20063;-49
2021/06/22 10:32:31;;;;;;;16.80;10.45;;;;;;;15.67;56.09;101576.06;5051493;28;20094;-48
2021/06/22 10:35:02;;;;;;;15.23;9.32;;;;;;;15.75;56.57;101582.91;5051759;28;20083;-48
2021/06/22 10:37:57;;;;;;;15.88;10.57;;;;;;;15.84;56.12;101577.66;5051704;28;20110;-48
2021/06/22 10:40:26;;;;;;;15.70;9.52;;;;;;;15.91;55.91;101578.97;4971072;28;20094;-49
2021/06/22 10:42:57;;;;;;;15.40;10.20;;;;;;;15.96;55.24;101581.69;4970190;28;20050;-48
2021/06/22 10:45:56;;;;;;;18.63;10.93;;;;;;;16.01;55.32;101577.25;4970423;28;20448;-48
2021/06/22 10:48:23;;;;;;;17.90;10.75;;;;;;;16.06;55.35;101577.22;4970954;28;20469;-45
2021/06/22 10:50:51;;;;;;;15.90;9.75;;;;;;;16.14;54.59;101574.69;4970475;28;20082;-46
2021/06/22 10:53:39;;;;;;;19.20;10.18;;;;;;;16.15;54.37;101565.31;4970686;28;20106;-46
2021/06/22 10:56:15;;;;;;;18.05;10.38;;;;;;;16.21;55.17;101570.78;4970170;28;20572;-48
2021/06/22 10:59:11;;;;;;;15.57;8.77;;;;;;;16.23;53.51;101571.31;4970590;28;20118;-47
2021/06/22 11:02:08;;;;;;;13.07;7.78;;;;;;;16.32;54.95;101564.09;4974437;28;20245;-48
2021/06/22 11:04:36;;;;;;;12.90;6.53;;;;;;;16.42;53.41;101572.25;4920052;29;20507;-48
2021/06/22 11:07:06;;;;;;;15.27;8.30;;;;;;;16.40;53.60;101577.19;4920450;29;20039;-49
2021/06/22 11:09:34;;;;;;;13.63;7.93;;;;;;;16.38;52.52;101571.19;4936215;29;20059;-47
2021/06/22 11:12:21;;;;;;;13.85;8.02;;;;;;;16.38;52.26;101571.19;4935159;29;20096;-48
2021/06/22 11:15:07;;;;;;;19.15;9.10;;;;;;;16.47;52.61;101571.38;4935570;29;20872;-51
2021/06/22 11:17:43;;;;;;;14.60;7.78;;;;;;;16.56;51.68;101577.91;4990853;28;20515;-50
2021/06/22 11:20:13;;;;;;;12.27;7.82;;;;;;;16.60;50.42;101571.53;5032759;28;20590;-46
2021/06/22 11:23:03;;;;;;;15.23;8.95;;;;;;;16.69;51.37;101573.63;5033020;28;20061;-48
2021/06/22 11:25:46;;;;;;;13.27;7.85;;;;;;;16.74;51.40;101571.66;5032451;28;20037;-48
2021/06/22 11:28:15;;;;;;;14.38;8.70;;;;;;;16.72;51.71;101575.81;5033042;28;20053;-47
2021/06/22 11:31:12;;;;;;;17.50;8.05;;;;;;;16.68;51.20;101581.06;5032822;28;20045;-46